Time;durP1;ratioP1;P1;durP2;ratioP2;P2;SDS_P1;SDS_P2;PMS_P1;PMS_P2;Temp;Humidity;BMP_temperature;BMP_pressure;BME280_temperature;BME280_humidity;BME280_pressure;Samples;Min_cycle;Max_cycle;Signal;HPM_P1;HPM_P2
2023/03/16 00:00:53;;;;;;;;;;;;;;;6.76;68.79;94270.06;5115189;28;1096;-61
2023/03/16 00:03:19;;;;;;;;;;;;;;;6.70;68.17;94269.88;5115203;28;1028;-60
2023/03/16 00:05:45;;;;;;;;;;;;;;;6.57;67.88;94270.31;5115353;28;992;-60
2023/03/16 00:08:12;;;;;;;;;;;;;;;6.61;67.65;94269.00;5114939;28;1065;-61
2023/03/16 00:10:38;;;;;;;;;;;;;;;6.58;68.02;94266.66;5114986;28;1888;-60
2023/03/16 00:13:04;;;;;;;;;;;;;;;6.51;67.88;94265.63;5115281;28;1000;-61
2023/03/16 00:15:30;;;;;;;;;;;;;;;6.54;67.01;94275.94;5114746;28;1092;-60
2023/03/16 00:17:56;;;;;;;;;;;;;;;6.58;66.90;94278.13;5115060;28;1913;-61
2023/03/16 00:20:22;;;;;;;;;;;;;;;6.59;66.95;94278.94;5115035;28;1035;-60
2023/03/16 00:22:48;;;;;;;;;;;;;;;6.71;66.49;94282.16;5114757;28;900;-60
2023/03/16 00:25:14;;;;;;;;;;;;;;;6.72;66.69;94287.31;5114842;27;1604;-61
2023/03/16 00:27:40;;;;;;;;;;;;;;;6.62;67.29;94282.13;5114536;28;1277;-61
2023/03/16 00:30:06;;;;;;;;;;;;;;;6.53;67.79;94287.56;5114584;28;1052;-61
2023/03/16 00:32:34;;;;;;;;;;;;;;;6.59;67.34;94287.75;5114672;28;969;-60
2023/03/16 00:35:01;;;;;;;;;;;;;;;6.56;67.80;94289.88;5114880;28;1031;-60
2023/03/16 00:37:27;;;;;;;;;;;;;;;6.59;68.01;94292.22;5114553;28;1020;-60
2023/03/16 00:39:56;;;;;;;;;;;;;;;6.56;67.83;94298.66;5114406;28;1934;-60
2023/03/16 00:42:26;;;;;;;;;;;;;;;6.45;67.97;94298.97;5113447;28;1032;-61
2023/03/16 00:44:56;;;;;;;;;;;;;;;6.38;68.12;94293.44;5114490;28;1016;-60
2023/03/16 00:47:23;;;;;;;;;;;;;;;6.35;66.60;94304.34;5114369;28;1019;-60
2023/03/16 00:49:49;;;;;;;;;;;;;;;6.47;66.76;94307.59;5114254;28;1127;-60
2023/03/16 00:52:15;;;;;;;;;;;;;;;6.28;67.39;94303.34;5114229;28;1016;-60
2023/03/16 00:54:42;;;;;;;;;;;;;;;6.32;67.02;94310.00;5114511;28;980;-61
2023/03/16 00:57:08;;;;;;;;;;;;;;;6.18;67.73;94310.53;5114488;28;1230;-60
2023/03/16 00:59:37;;;;;;;;;;;;;;;6.23;67.64;94316.22;5113908;28;1968;-61
2023/03/16 01:02:04;;;;;;;;;;;;;;;6.30;67.36;94311.97;5112901;28;1037;-60
2023/03/16 01:04:31;;;;;;;;;;;;;;;6.27;67.86;94312.28;5114060;28;1024;-60
2023/03/16 01:06:57;;;;;;;;;;;;;;;6.31;68.43;94321.59;5113982;28;1035;-61
2023/03/16 01:09:23;;;;;;;;;;;;;;;6.29;69.00;94315.59;5113914;28;1033;-61
2023/03/16 01:11:52;;;;;;;;;;;;;;;6.28;69.70;94319.25;5113949;28;1116;-60
2023/03/16 01:14:19;;;;;;;;;;;;;;;6.33;69.42;94316.97;5113922;28;1051;-60
2023/03/16 01:16:45;;;;;;;;;;;;;;;6.36;69.99;94327.28;5113849;28;1040;-61
2023/03/16 01:19:14;;;;;;;;;;;;;;;6.36;70.79;94321.13;5113670;28;2020;-60
2023/03/16 01:21:41;;;;;;;;;;;;;;;6.44;70.68;94324.66;5114028;28;1020;-60
2023/03/16 01:24:07;;;;;;;;;;;;;;;6.25;72.58;94323.03;5113806;28;1045;-61
2023/03/16 01:26:34;;;;;;;;;;;;;;;6.34;71.82;94331.91;5111995;28;1642;-61
2023/03/16 01:29:01;;;;;;;;;;;;;;;6.23;72.88;94324.19;5112253;28;1306;-60
2023/03/16 01:31:28;;;;;;;;;;;;;;;6.25;72.67;94325.69;5113711;28;1032;-60
2023/03/16 01:33:54;;;;;;;;;;;;;;;6.28;71.90;94324.56;5113744;28;968;-60
2023/03/16 01:36:20;;;;;;;;;;;;;;;6.20;72.13;94325.34;5113563;28;1020;-59
2023/03/16 01:38:46;;;;;;;;;;;;;;;6.06;73.43;94332.03;5113593;28;1914;-61
2023/03/16 01:41:13;;;;;;;;;;;;;;;5.94;75.55;94335.88;5113489;28;1088;-61
2023/03/16 01:43:40;;;;;;;;;;;;;;;5.95;75.14;94334.06;5113699;28;1051;-60
2023/03/16 01:46:06;;;;;;;;;;;;;;;6.05;74.47;94340.13;5113705;28;969;-60
2023/03/16 01:48:38;;;;;;;;;;;;;;;6.05;74.78;94337.47;5113526;28;1009;-60
2023/03/16 01:51:10;;;;;;;;;;;;;;;5.79;75.26;94342.72;5113983;28;1028;-60
2023/03/16 01:53:38;;;;;;;;;;;;;;;5.81;75.52;94343.41;5113772;28;980;-60
2023/03/16 01:56:07;;;;;;;;;;;;;;;5.72;75.87;94345.13;5113616;28;984;-60
2023/03/16 01:58:34;;;;;;;;;;;;;;;5.69;75.47;94342.75;5113273;28;1979;-61
2023/03/16 02:01:00;;;;;;;;;;;;;;;5.64;74.04;94350.34;5113768;28;989;-59
2023/03/16 02:03:26;;;;;;;;;;;;;;;5.59;71.02;94350.78;5113404;28;1016;-60
2023/03/16 02:05:58;;;;;;;;;;;;;;;5.62;70.04;94360.28;5113347;28;1082;-60
2023/03/16 02:08:24;;;;;;;;;;;;;;;5.73;68.28;94362.72;5112099;28;1020;-60
2023/03/16 02:10:53;;;;;;;;;;;;;;;5.81;68.28;94364.63;5113649;28;969;-60
2023/03/16 02:13:20;;;;;;;;;;;;;;;5.77;67.14;94368.56;5113442;28;957;-60
2023/03/16 02:15:46;;;;;;;;;;;;;;;5.71;66.93;94364.69;5112400;28;1629;-61
2023/03/16 02:18:13;;;;;;;;;;;;;;;5.71;67.11;94370.00;5113351;28;1910;-61
2023/03/16 02:20:49;;;;;;;;;;;;;;;5.74;67.55;94368.84;5113468;28;1012;-61
2023/03/16 02:23:19;;;;;;;;;;;;;;;5.68;66.87;94373.75;5113499;28;1051;-61
2023/03/16 02:25:48;;;;;;;;;;;;;;;5.57;67.15;94381.09;5113431;28;1339;-60
2023/03/16 02:28:17;;;;;;;;;;;;;;;5.50;68.18;94380.03;5111687;28;1115;-60
2023/03/16 02:30:44;;;;;;;;;;;;;;;5.63;67.54;94378.72;5113050;28;1134;-61
2023/03/16 02:33:10;;;;;;;;;;;;;;;5.55;67.75;94389.19;5113311;28;989;-61
2023/03/16 02:35:36;;;;;;;;;;;;;;;5.56;67.48;94393.53;5113128;28;1061;-61
2023/03/16 02:38:02;;;;;;;;;;;;;;;5.56;67.43;94385.59;5114589;28;1906;-61
2023/03/16 02:40:29;;;;;;;;;;;;;;;5.56;67.25;94388.22;5116811;28;1004;-61
2023/03/16 02:43:22;;;;;;;;;;;;;;;5.60;67.32;94392.25;5116741;28;1040;-60
2023/03/16 02:45:54;;;;;;;;;;;;;;;5.48;69.08;94394.28;5113932;28;1299;-61
2023/03/16 02:48:31;;;;;;;;;;;;;;;5.55;70.07;94385.72;5116574;28;1044;-61
2023/03/16 02:50:57;;;;;;;;;;;;;;;5.49;69.47;94384.50;5116980;28;1063;-60
2023/03/16 02:53:23;;;;;;;;;;;;;;;5.58;68.44;94399.53;5116445;28;1045;-60
2023/03/16 02:55:49;;;;;;;;;;;;;;;5.57;68.47;94394.38;5116784;28;1015;-61
2023/03/16 02:58:16;;;;;;;;;;;;;;;5.54;68.23;94392.00;5116488;28;1909;-61
2023/03/16 03:00:42;;;;;;;;;;;;;;;5.56;68.47;94400.63;5116627;28;1044;-61
2023/03/16 03:03:08;;;;;;;;;;;;;;;5.43;69.95;94401.00;5116357;28;1089;-61
2023/03/16 03:05:35;;;;;;;;;;;;;;;5.48;69.21;94414.63;5116539;28;969;-61
2023/03/16 03:08:01;;;;;;;;;;;;;;;5.41;68.69;94403.81;5116355;28;977;-61
2023/03/16 03:10:27;;;;;;;;;;;;;;;5.40;68.04;94409.25;5116060;28;1015;-61
2023/03/16 03:12:53;;;;;;;;;;;;;;;5.47;67.35;94410.34;5116139;28;1040;-61
2023/03/16 03:15:20;;;;;;;;;;;;;;;5.51;66.83;94418.84;5116188;28;1031;-61
2023/03/16 03:17:46;;;;;;;;;;;;;;;5.49;66.66;94418.97;5116243;28;1032;-61
2023/03/16 03:20:15;;;;;;;;;;;;;;;5.45;67.06;94429.03;5116202;27;1910;-61
2023/03/16 03:22:41;;;;;;;;;;;;;;;5.53;66.45;94432.78;5115975;28;1029;-61
2023/03/16 03:25:07;;;;;;;;;;;;;;;5.47;66.02;94431.53;5114633;28;1549;-61
2023/03/16 03:27:34;;;;;;;;;;;;;;;5.39;65.49;94432.28;5115589;28;1108;-61
2023/03/16 03:30:00;;;;;;;;;;;;;;;5.36;65.49;94442.34;5116051;28;981;-60
2023/03/16 03:32:26;;;;;;;;;;;;;;;5.29;64.07;94444.72;5115771;28;1119;-60
2023/03/16 03:34:52;;;;;;;;;;;;;;;5.27;64.13;94447.56;5115826;28;981;-60
2023/03/16 03:37:18;;;;;;;;;;;;;;;5.23;62.84;94446.16;5114506;28;1218;-60
2023/03/16 03:39:44;;;;;;;;;;;;;;;5.18;63.38;94445.78;5115837;28;1913;-60
2023/03/16 03:42:10;;;;;;;;;;;;;;;5.11;62.92;94452.63;5114175;28;1049;-60
2023/03/16 03:44:36;;;;;;;;;;;;;;;5.08;63.07;94445.81;5115535;28;1021;-60
2023/03/16 03:47:02;;;;;;;;;;;;;;;5.13;63.36;94450.66;5114584;28;1012;-60
2023/03/16 03:49:29;;;;;;;;;;;;;;;5.10;62.80;94456.25;5115071;27;1057;-60
2023/03/16 03:51:55;;;;;;;;;;;;;;;5.15;63.60;94453.16;5115475;28;1001;-60
2023/03/16 03:54:21;;;;;;;;;;;;;;;5.07;63.61;94457.38;5114073;28;999;-61
2023/03/16 03:56:47;;;;;;;;;;;;;;;4.97;64.81;94455.72;5115461;28;1043;-60
2023/03/16 03:59:13;;;;;;;;;;;;;;;5.01;64.73;94465.06;5115206;28;1982;-59
2023/03/16 04:01:39;;;;;;;;;;;;;;;5.03;65.11;94466.59;5115470;27;1074;-60
2023/03/16 04:04:05;;;;;;;;;;;;;;;5.10;64.65;94469.47;5115481;28;992;-59
2023/03/16 04:06:31;;;;;;;;;;;;;;;5.09;64.53;94478.44;5115125;28;1047;-61
2023/03/16 04:08:57;;;;;;;;;;;;;;;4.94;65.60;94477.22;5114976;28;1123;-60
2023/03/16 04:11:23;;;;;;;;;;;;;;;4.87;65.88;94482.25;5115157;28;1032;-61
2023/03/16 04:13:52;;;;;;;;;;;;;;;4.84;66.05;94480.72;5114925;28;1061;-61
2023/03/16 04:16:18;;;;;;;;;;;;;;;4.88;65.93;94481.28;5115014;28;1016;-61
2023/03/16 04:18:45;;;;;;;;;;;;;;;4.80;66.00;94495.22;5115048;28;1996;-60
2023/03/16 04:21:15;;;;;;;;;;;;;;;4.80;66.13;94497.03;5114900;28;964;-60
2023/03/16 04:23:42;;;;;;;;;;;;;;;4.79;66.33;94493.56;5114767;28;1037;-60
2023/03/16 04:26:09;;;;;;;;;;;;;;;4.65;66.51;94500.13;5114560;28;1605;-60
2023/03/16 04:28:35;;;;;;;;;;;;;;;4.59;67.29;94499.84;5114541;28;1214;-61
2023/03/16 04:31:02;;;;;;;;;;;;;;;4.66;66.83;94506.25;5114749;28;1055;-60
2023/03/16 04:33:28;;;;;;;;;;;;;;;4.65;67.42;94509.88;5114512;28;1169;-61
2023/03/16 04:35:54;;;;;;;;;;;;;;;4.61;67.42;94519.94;5114539;28;976;-60
2023/03/16 04:38:20;;;;;;;;;;;;;;;4.47;68.03;94521.16;5114462;28;2004;-60
2023/03/16 04:40:46;;;;;;;;;;;;;;;4.44;67.74;94524.09;5130071;27;1045;-61
2023/03/16 04:43:12;;;;;;;;;;;;;;;4.56;68.25;94535.38;5114495;28;977;-61
2023/03/16 04:45:38;;;;;;;;;;;;;;;4.53;68.18;94527.72;5114498;28;1035;-60
2023/03/16 04:48:04;;;;;;;;;;;;;;;4.41;68.94;94534.13;5114251;28;1092;-60
2023/03/16 04:50:31;;;;;;;;;;;;;;;4.29;69.00;94541.38;5114402;28;1017;-60
2023/03/16 04:52:57;;;;;;;;;;;;;;;4.33;69.55;94541.94;5114409;28;972;-60
2023/03/16 04:55:23;;;;;;;;;;;;;;;4.33;69.69;94547.22;5114067;28;1056;-62
2023/03/16 04:57:49;;;;;;;;;;;;;;;4.31;69.96;94542.06;5114105;28;1053;-61
2023/03/16 05:00:19;;;;;;;;;;;;;;;4.23;69.94;94547.19;5113349;28;1929;-61
2023/03/16 05:02:48;;;;;;;;;;;;;;;4.20;71.01;94552.78;5114232;28;957;-61
2023/03/16 05:05:15;;;;;;;;;;;;;;;4.36;69.87;94549.59;5113858;28;1031;-62
2023/03/16 05:07:41;;;;;;;;;;;;;;;4.42;69.25;94555.19;5114304;28;1105;-62
2023/03/16 05:10:08;;;;;;;;;;;;;;;4.30;69.49;94553.63;5114076;28;1020;-62
2023/03/16 05:12:34;;;;;;;;;;;;;;;4.37;68.86;94560.03;5113799;28;1057;-62
2023/03/16 05:15:00;;;;;;;;;;;;;;;4.32;69.91;94561.44;5113977;28;981;-62
2023/03/16 05:17:26;;;;;;;;;;;;;;;4.42;69.72;94562.25;5114085;27;965;-62
2023/03/16 05:19:52;;;;;;;;;;;;;;;4.45;69.44;94567.28;5113728;28;1909;-62
2023/03/16 05:22:18;;;;;;;;;;;;;;;4.41;69.18;94568.53;5113633;28;969;-62
2023/03/16 05:28:06;;;;;;;;;;;;;;;4.45;70.69;94576.06;5093283;28;1210;-63
2023/03/16 05:30:33;;;;;;;;;;;;;;;4.74;69.49;94571.75;5093196;28;1090;-63
2023/03/16 05:33:00;;;;;;;;;;;;;;;4.76;69.13;94575.94;5093265;28;1061;-62
2023/03/16 05:35:26;;;;;;;;;;;;;;;4.85;68.93;94576.91;5093198;28;1077;-58
2023/03/16 05:37:52;;;;;;;;;;;;;;;5.03;67.85;94577.03;5093547;28;1063;-62
2023/03/16 05:40:21;;;;;;;;;;;;;;;4.88;67.76;94571.34;5093258;28;1913;-61
2023/03/16 05:42:49;;;;;;;;;;;;;;;4.86;67.83;94586.53;5093263;28;1036;-61
2023/03/16 05:45:15;;;;;;;;;;;;;;;4.85;67.18;94588.34;5095042;28;1177;-59
2023/03/16 05:47:42;;;;;;;;;;;;;;;4.95;67.14;94591.00;5113880;28;1019;-61
2023/03/16 05:50:10;;;;;;;;;;;;;;;5.06;65.89;94590.00;5113813;28;960;-61
2023/03/16 05:52:37;;;;;;;;;;;;;;;4.91;65.96;94594.06;5113623;28;1041;-60
2023/03/16 05:55:04;;;;;;;;;;;;;;;4.92;66.50;94588.63;5113378;28;1134;-61
2023/03/16 05:57:32;;;;;;;;;;;;;;;4.97;66.24;94593.47;5113417;28;1100;-61
2023/03/16 05:59:59;;;;;;;;;;;;;;;4.96;65.89;94600.59;5113401;28;1913;-61
2023/03/16 06:02:25;;;;;;;;;;;;;;;4.92;66.35;94607.16;5113579;28;996;-62
2023/03/16 06:04:51;;;;;;;;;;;;;;;4.91;66.49;94605.47;5113524;28;1071;-62
2023/03/16 06:07:17;;;;;;;;;;;;;;;4.96;65.29;94608.56;5112223;28;1015;-61
2023/03/16 06:09:43;;;;;;;;;;;;;;;4.93;65.06;94613.28;5113634;28;960;-62
2023/03/16 06:12:10;;;;;;;;;;;;;;;5.09;64.72;94616.22;5115004;28;1103;-61
2023/03/16 06:14:36;;;;;;;;;;;;;;;5.04;63.84;94615.81;5116191;28;1060;-61
2023/03/16 06:17:02;;;;;;;;;;;;;;;5.05;64.01;94620.97;5117334;28;1573;-62
2023/03/16 06:19:28;;;;;;;;;;;;;;;4.94;62.87;94629.06;5133017;27;1909;-62
2023/03/16 06:21:54;;;;;;;;;;;;;;;4.95;62.60;94637.81;5117483;28;1004;-61
2023/03/16 06:24:20;;;;;;;;;;;;;;;5.02;62.76;94633.66;5115832;28;1116;-61
2023/03/16 06:26:46;;;;;;;;;;;;;;;5.03;62.29;94638.00;5117123;28;1588;-62
2023/03/16 06:29:12;;;;;;;;;;;;;;;5.02;62.74;94636.31;5117013;28;992;-60
2023/03/16 06:31:38;;;;;;;;;;;;;;;5.19;62.25;94640.88;5117058;28;1029;-60
2023/03/16 06:34:04;;;;;;;;;;;;;;;5.04;62.78;94650.25;5117314;28;972;-60
2023/03/16 06:36:30;;;;;;;;;;;;;;;5.15;63.00;94651.94;5116894;28;920;-60
2023/03/16 06:38:56;;;;;;;;;;;;;;;5.16;62.82;94657.09;5116725;28;1956;-60
2023/03/16 06:41:23;;;;;;;;;;;;;;;5.20;62.29;94660.31;5116509;28;1096;-60
2023/03/16 06:43:49;;;;;;;;;;;;;;;5.15;63.48;94660.69;5116658;28;1065;-60
2023/03/16 06:46:15;;;;;;;;;;;;;;;5.10;63.16;94665.56;5116798;28;953;-59
2023/03/16 06:48:41;;;;;;;;;;;;;;;5.18;63.18;94675.47;5115437;28;1046;-60
2023/03/16 06:51:07;;;;;;;;;;;;;;;5.25;63.00;94680.09;5115636;28;997;-59
2023/03/16 06:53:33;;;;;;;;;;;;;;;5.13;63.31;94681.22;5116496;28;1048;-60
2023/03/16 06:56:00;;;;;;;;;;;;;;;5.07;63.10;94682.59;5116635;28;960;-59
2023/03/16 06:58:26;;;;;;;;;;;;;;;5.01;64.14;94700.88;5116186;27;1988;-60
2023/03/16 07:00:52;;;;;;;;;;;;;;;5.08;64.25;94699.34;5116346;28;1128;-59
2023/03/16 07:03:18;;;;;;;;;;;;;;;5.03;65.09;94705.06;5116359;28;968;-60
2023/03/16 07:05:46;;;;;;;;;;;;;;;5.11;65.22;94708.84;5116215;28;1112;-60
2023/03/16 07:08:14;;;;;;;;;;;;;;;5.32;65.49;94716.66;5114990;28;849;-60
2023/03/16 07:10:42;;;;;;;;;;;;;;;5.51;64.92;94719.28;5114888;28;1037;-60
2023/03/16 07:13:10;;;;;;;;;;;;;;;5.49;64.70;94721.25;5115934;28;1041;-60
2023/03/16 07:15:37;;;;;;;;;;;;;;;5.77;64.36;94708.09;5114897;28;1042;-60
2023/03/16 07:18:05;;;;;;;;;;;;;;;6.02;63.46;94714.63;5115995;28;1108;-59
2023/03/16 07:20:34;;;;;;;;;;;;;;;6.18;62.65;94719.31;5115838;28;1140;-60
2023/03/16 07:23:02;;;;;;;;;;;;;;;6.25;61.86;94710.63;5114297;28;1064;-59
2023/03/16 07:25:31;;;;;;;;;;;;;;;6.22;61.85;94716.25;5115542;28;1236;-59
2023/03/16 07:27:58;;;;;;;;;;;;;;;6.20;62.41;94714.69;5115590;28;1254;-59
2023/03/16 07:30:26;;;;;;;;;;;;;;;6.22;61.92;94723.34;5114443;28;1415;-60
2023/03/16 07:32:55;;;;;;;;;;;;;;;6.35;61.53;94726.53;5115812;28;1164;-60
2023/03/16 07:35:23;;;;;;;;;;;;;;;6.33;62.15;94725.00;5114438;28;1077;-60
2023/03/16 07:37:53;;;;;;;;;;;;;;;6.37;62.07;94726.38;5114465;28;1536;-59
2023/03/16 07:40:22;;;;;;;;;;;;;;;6.21;60.97;94729.66;5115390;28;1906;-59
2023/03/16 07:42:50;;;;;;;;;;;;;;;6.30;61.38;94723.50;5114646;28;1131;-60
2023/03/16 07:45:18;;;;;;;;;;;;;;;6.28;62.10;94722.81;5115423;28;1119;-60
2023/03/16 07:47:46;;;;;;;;;;;;;;;6.32;61.09;94724.16;5114307;28;1139;-61
2023/03/16 07:50:15;;;;;;;;;;;;;;;6.39;60.66;94730.59;5114245;28;1071;-61
2023/03/16 07:52:42;;;;;;;;;;;;;;;6.31;59.83;94730.44;5113175;28;1160;-61
2023/03/16 07:55:10;;;;;;;;;;;;;;;6.33;59.74;94728.50;5115200;28;1068;-61
2023/03/16 07:57:46;;;;;;;;;;;;;;;6.52;59.79;94740.03;5114500;28;1001;-62
2023/03/16 08:00:14;;;;;;;;;;;;;;;6.54;59.43;94732.75;5115202;28;1910;-61
2023/03/16 08:02:43;;;;;;;;;;;;;;;6.64;58.70;94730.91;5112959;28;1061;-61
2023/03/16 08:05:11;;;;;;;;;;;;;;;6.85;58.53;94733.31;5114641;28;1108;-61
2023/03/16 08:07:41;;;;;;;;;;;;;;;6.96;57.90;94737.56;5115169;28;1048;-61
2023/03/16 08:10:10;;;;;;;;;;;;;;;7.08;56.60;94739.03;5113765;28;1092;-61
2023/03/16 08:12:38;;;;;;;;;;;;;;;7.11;56.49;94745.84;5114981;28;1308;-62
2023/03/16 08:15:06;;;;;;;;;;;;;;;7.16;57.12;94747.09;5115036;28;1029;-61
2023/03/16 08:17:35;;;;;;;;;;;;;;;7.36;58.40;94746.94;5114943;28;1198;-62
2023/03/16 08:20:09;;;;;;;;;;;;;;;7.26;58.24;94749.69;5114719;28;1910;-61
2023/03/16 08:22:37;;;;;;;;;;;;;;;7.24;56.93;94754.31;5114838;28;1163;-61
2023/03/16 08:25:09;;;;;;;;;;;;;;;7.49;56.74;94752.72;5114619;28;1109;-62
2023/03/16 08:27:37;;;;;;;;;;;;;;;7.71;54.74;94756.75;5114734;28;1158;-61
2023/03/16 08:30:06;;;;;;;;;;;;;;;7.49;55.18;94750.06;5114792;28;1004;-61
2023/03/16 08:32:34;;;;;;;;;;;;;;;7.43;54.37;94766.63;5114251;28;1123;-61
2023/03/16 08:35:07;;;;;;;;;;;;;;;7.26;54.79;94756.81;5113845;27;1044;-61
2023/03/16 08:37:35;;;;;;;;;;;;;;;7.33;54.97;94763.22;5114625;28;1157;-61
2023/03/16 08:40:08;;;;;;;;;;;;;;;7.49;54.41;94752.72;5113785;28;2002;-62
2023/03/16 08:42:38;;;;;;;;;;;;;;;7.72;54.82;94760.25;5114820;28;1023;-62
2023/03/16 08:45:08;;;;;;;;;;;;;;;7.74;54.13;94763.59;5114258;28;1167;-62
2023/03/16 08:47:39;;;;;;;;;;;;;;;8.11;53.78;94766.06;5114393;28;1124;-62
2023/03/16 08:50:09;;;;;;;;;;;;;;;8.37;54.19;94765.25;5114422;28;1044;-62
2023/03/16 08:52:37;;;;;;;;;;;;;;;8.52;52.50;94763.69;5114276;28;937;-62
2023/03/16 08:55:06;;;;;;;;;;;;;;;8.73;52.34;94759.81;5114214;28;1033;-62
2023/03/16 08:57:34;;;;;;;;;;;;;;;8.72;52.60;94761.63;5112941;28;1053;-61
2023/03/16 09:00:11;;;;;;;;;;;;;;;8.78;51.57;94769.00;5114139;28;1992;-61
2023/03/16 09:02:40;;;;;;;;;;;;;;;8.65;51.64;94771.25;5114211;28;1061;-60
2023/03/16 09:05:10;;;;;;;;;;;;;;;8.53;52.79;94767.19;5114254;28;1055;-61
2023/03/16 09:07:38;;;;;;;;;;;;;;;8.60;51.92;94771.72;5113917;28;889;-60
2023/03/16 09:10:10;;;;;;;;;;;;;;;8.60;53.23;94766.41;5113937;28;1076;-61
2023/03/16 09:12:39;;;;;;;;;;;;;;;8.88;51.19;94768.00;5113920;28;1112;-61
2023/03/16 09:15:09;;;;;;;;;;;;;;;8.70;51.09;94771.59;5100674;28;1663;-61
2023/03/16 09:17:40;;;;;;;;;;;;;;;8.59;52.52;94770.06;5112889;28;1121;-61
2023/03/16 09:20:09;;;;;;;;;;;;;;;8.28;52.46;94760.84;5113895;28;1902;-61
2023/03/16 09:22:42;;;;;;;;;;;;;;;8.31;52.69;94771.16;5113771;28;1077;-61
2023/03/16 09:25:11;;;;;;;;;;;;;;;8.45;52.21;94769.81;5113644;28;1534;-61
2023/03/16 09:27:39;;;;;;;;;;;;;;;8.55;52.40;94767.84;5093819;28;1219;-61
2023/03/16 09:30:09;;;;;;;;;;;;;;;8.43;51.94;94769.13;5093392;28;1041;-61
2023/03/16 09:32:37;;;;;;;;;;;;;;;8.29;53.01;94768.69;5093166;28;1060;-61
2023/03/16 09:35:05;;;;;;;;;;;;;;;8.12;53.01;94767.75;5093036;28;1068;-60
2023/03/16 09:37:34;;;;;;;;;;;;;;;8.02;52.96;94773.16;5092857;28;1201;-60
2023/03/16 09:40:04;;;;;;;;;;;;;;;7.90;53.41;94779.69;5091561;28;1882;-61
2023/03/16 09:42:33;;;;;;;;;;;;;;;7.92;54.48;94777.72;5093197;28;1135;-61
2023/03/16 09:45:06;;;;;;;;;;;;;;;8.08;55.20;94777.03;5091972;28;1128;-61
2023/03/16 09:47:34;;;;;;;;;;;;;;;8.28;53.47;94780.31;5112152;28;1233;-61
2023/03/16 09:50:07;;;;;;;;;;;;;;;8.35;54.09;94776.03;5117890;28;1139;-61
2023/03/16 09:52:54;;;;;;;;;;;;;;;8.43;52.45;94779.78;5117294;28;1060;-61
2023/03/16 09:55:26;;;;;;;;;;;;;;;8.39;53.18;94787.22;5117665;28;1057;-61
2023/03/16 09:57:56;;;;;;;;;;;;;;;8.35;52.92;94780.53;5117712;28;1065;-61
2023/03/16 10:00:29;;;;;;;;;;;;;;;8.45;52.87;94785.78;5117536;27;1981;-61
2023/03/16 10:02:57;;;;;;;;;;;;;;;8.42;53.29;94784.25;5116476;28;1065;-61
2023/03/16 10:05:26;;;;;;;;;;;;;;;8.24;52.11;94778.97;5117509;28;1136;-61
2023/03/16 10:08:13;;;;;;;;;;;;;;;8.44;53.02;94779.59;5117313;28;1411;-61
2023/03/16 10:10:42;;;;;;;;;;;;;;;8.27;53.97;94784.00;5117293;28;1108;-61
2023/03/16 10:13:31;;;;;;;;;;;;;;;8.23;54.75;94776.44;5116135;28;1037;-61
2023/03/16 10:16:02;;;;;;;;;;;;;;;8.20;53.88;94780.28;5116951;28;1251;-61
2023/03/16 10:18:35;;;;;;;;;;;;;;;8.40;54.13;94778.22;5117171;28;1984;-61
2023/03/16 10:21:04;;;;;;;;;;;;;;;8.81;53.23;94781.16;5117182;28;1115;-61
2023/03/16 10:23:34;;;;;;;;;;;;;;;8.93;52.60;94787.03;5117000;28;1112;-62
2023/03/16 10:26:04;;;;;;;;;;;;;;;8.86;52.35;94786.00;5111952;28;1542;-61
2023/03/16 10:28:32;;;;;;;;;;;;;;;8.78;53.03;94786.81;5096512;28;1220;-60
2023/03/16 10:30:59;;;;;;;;;;;;;;;8.68;53.29;94781.59;5095429;28;1005;-63
2023/03/16 10:33:32;;;;;;;;;;;;;;;8.64;51.94;94788.25;5095310;28;1691;-62
2023/03/16 10:36:04;;;;;;;;;;;;;;;8.84;51.48;94782.66;5096191;28;1195;-61
2023/03/16 10:38:39;;;;;;;;;;;;;;;8.99;50.95;94789.91;5096128;28;1927;-62
2023/03/16 10:41:16;;;;;;;;;;;;;;;9.07;51.40;94783.78;5096377;28;1045;-62
2023/03/16 10:43:44;;;;;;;;;;;;;;;9.04;51.34;94786.75;5096374;28;1009;-58
2023/03/16 10:46:13;;;;;;;;;;;;;;;9.23;49.97;94787.50;5095768;28;1045;-60
2023/03/16 10:49:00;;;;;;;;;;;;;;;9.22;50.79;94785.81;5095413;28;1037;-61
2023/03/16 10:51:30;;;;;;;;;;;;;;;9.24;48.88;94784.69;5095991;28;1096;-62
2023/03/16 10:54:28;;;;;;;;;;;;;;;9.10;50.09;94778.09;5095536;28;1045;-60
2023/03/16 10:56:59;;;;;;;;;;;;;;;9.02;49.62;94783.41;5091182;28;1704;-60
2023/03/16 10:59:30;;;;;;;;;;;;;;;8.99;50.55;94786.41;5115109;28;1909;-61
2023/03/16 11:02:10;;;;;;;;;;;;;;;8.97;49.49;94788.38;5116401;28;1049;-58
2023/03/16 11:04:37;;;;;;;;;;;;;;;9.01;49.75;94792.44;5115130;28;1504;-61
2023/03/16 11:07:08;;;;;;;;;;;;;;;8.96;49.60;94784.91;5115677;28;1104;-61
2023/03/16 11:09:37;;;;;;;;;;;;;;;8.89;50.50;94780.38;5116199;28;1097;-61
2023/03/16 11:12:12;;;;;;;;;;;;;;;8.73;51.77;94776.63;5116049;28;1045;-60
2023/03/16 11:14:43;;;;;;;;;;;;;;;8.72;50.75;94780.28;5116064;28;1061;-60
2023/03/16 11:17:18;;;;;;;;;;;;;;;8.81;50.48;94778.50;5115184;28;1144;-61
2023/03/16 11:19:46;;;;;;;;;;;;;;;8.58;50.75;94776.38;5115680;28;1906;-59
2023/03/16 11:22:16;;;;;;;;;;;;;;;8.50;51.08;94778.16;5116023;28;1112;-59
2023/03/16 11:24:46;;;;;;;;;;;;;;;8.49;50.87;94779.16;5116020;28;1100;-59
2023/03/16 11:27:22;;;;;;;;;;;;;;;8.23;51.72;94773.78;5103035;28;1402;-60
2023/03/16 11:29:58;;;;;;;;;;;;;;;8.15;53.57;94769.25;5093952;28;1249;-60
2023/03/16 11:32:29;;;;;;;;;;;;;;;8.21;52.11;94769.47;5095237;28;1052;-60
2023/03/16 11:34:58;;;;;;;;;;;;;;;7.93;51.95;94771.41;5095623;28;1131;-59
2023/03/16 11:37:29;;;;;;;;;;;;;;;8.10;52.36;94772.38;5094828;28;1185;-60
2023/03/16 11:40:13;;;;;;;;;;;;;;;8.33;53.59;94764.72;5095121;28;1914;-61
2023/03/16 11:42:49;;;;;;;;;;;;;;;8.40;52.82;94768.44;5095013;28;1214;-60
2023/03/16 11:45:26;;;;;;;;;;;;;;;8.52;51.11;94774.34;5095011;28;1103;-60
2023/03/16 11:48:13;;;;;;;;;;;;;;;8.50;50.23;94779.00;5093475;28;1518;-59
2023/03/16 11:50:57;;;;;;;;;;;;;;;8.56;50.55;94777.53;5094822;28;1136;-60
2023/03/16 11:53:38;;;;;;;;;;;;;;;8.67;51.47;94782.59;5093709;28;1517;-61
2023/03/16 11:56:09;;;;;;;;;;;;;;;8.63;51.38;94781.22;5094628;28;1048;-61
2023/03/16 11:58:49;;;;;;;;;;;;;;;8.63;50.84;94781.22;5094700;28;1910;-61
2023/03/16 12:01:22;;;;;;;;;;;;;;;8.65;50.24;94794.41;5093983;28;1049;-60
2023/03/16 12:03:53;;;;;;;;;;;;;;;8.63;49.64;94786.56;5094583;28;1076;-60
2023/03/16 12:06:27;;;;;;;;;;;;;;;8.51;49.53;94791.31;5094192;28;1053;-60
2023/03/16 12:09:00;;;;;;;;;;;;;;;8.53;49.96;94789.31;5093481;28;1124;-59
2023/03/16 12:11:31;;;;;;;;;;;;;;;8.53;49.45;94796.50;5094557;28;990;-61
2023/03/16 12:14:06;;;;;;;;;;;;;;;8.45;50.12;94794.63;5094506;28;1013;-60
2023/03/16 12:16:53;;;;;;;;;;;;;;;8.42;50.33;94800.25;5094209;28;945;-60
2023/03/16 12:19:39;;;;;;;;;;;;;;;8.45;51.08;94796.44;5094224;28;1991;-60
2023/03/16 12:22:14;;;;;;;;;;;;;;;8.42;51.57;94800.25;5094606;28;1042;-61
2023/03/16 12:24:44;;;;;;;;;;;;;;;8.58;51.48;94804.88;5094463;28;1041;-58
2023/03/16 12:27:25;;;;;;;;;;;;;;;8.85;50.80;94806.50;5103273;28;1542;-61
2023/03/16 12:30:13;;;;;;;;;;;;;;;8.73;50.91;94813.94;5094435;28;1052;-61
2023/03/16 12:32:59;;;;;;;;;;;;;;;8.73;51.17;94805.94;5094249;28;1045;-60
2023/03/16 12:35:42;;;;;;;;;;;;;;;8.64;50.23;94816.72;5094517;28;985;-59
2023/03/16 12:38:29;;;;;;;;;;;;;;;8.50;51.10;94818.13;5093890;28;1143;-61
2023/03/16 12:41:18;;;;;;;;;;;;;;;8.55;51.29;94821.16;5092957;28;1057;-61
2023/03/16 12:43:49;;;;;;;;;;;;;;;8.60;50.74;94830.34;5093999;28;1112;-62
2023/03/16 12:46:27;;;;;;;;;;;;;;;8.43;52.03;94828.56;5093686;28;1348;-61
2023/03/16 12:48:57;;;;;;;;;;;;;;;8.34;51.07;94846.28;5094008;28;1066;-60
2023/03/16 12:51:37;;;;;;;;;;;;;;;8.34;50.86;94842.78;5093947;28;1107;-60
2023/03/16 12:54:38;;;;;;;;;;;;;;;8.13;51.01;94848.44;5093887;28;1116;-60
2023/03/16 12:57:07;;;;;;;;;;;;;;;7.97;51.96;94839.34;5080402;28;1292;-60
2023/03/16 12:59:42;;;;;;;;;;;;;;;7.93;51.72;94845.09;5092663;28;1989;-60
2023/03/16 13:02:16;;;;;;;;;;;;;;;7.82;51.77;94851.50;5093723;28;1101;-60
2023/03/16 13:04:47;;;;;;;;;;;;;;;7.79;51.96;94857.13;5093724;28;1049;-60
2023/03/16 13:07:18;;;;;;;;;;;;;;;7.63;52.82;94858.63;5093261;28;1324;-60
2023/03/16 13:09:49;;;;;;;;;;;;;;;7.61;52.37;94862.44;5091917;28;1065;-60
2023/03/16 13:12:27;;;;;;;;;;;;;;;7.58;52.24;94860.06;5093637;28;1140;-60
2023/03/16 13:14:55;;;;;;;;;;;;;;;7.65;51.34;94857.66;5093531;28;1048;-60
2023/03/16 13:17:25;;;;;;;;;;;;;;;7.50;51.95;94858.16;5103075;28;1078;-60
2023/03/16 13:20:00;;;;;;;;;;;;;;;7.51;52.03;94854.53;5113822;28;1979;-60
2023/03/16 13:22:31;;;;;;;;;;;;;;;7.61;51.57;94851.78;5112678;28;1166;-60
2023/03/16 13:25:14;;;;;;;;;;;;;;;7.58;52.22;94866.22;5113717;28;1600;-60